Terminal Aerodrome Forecast
Issued by NWS Pocatello, ID

Home | Current Version | Previous Version | Text Only | Print | Product List | Glossary On
Versions: 1 2 3 4 5 6 7 8 9 10 11 12 13 14 15 16
323
FTUS45 KPIH 061855 AAA
TAFIDA
TAF AMD
KIDA 061855Z 0619/0718 23015G25KT P6SM -SHRA VCTS BKN040CB BKN070
      OVC120
     FM062100 09015G25KT P6SM -TSRA BKN060CB OVC120
      TEMPO 0621/0623 VRB30G45KT 4SM TSRA OVC040CB
     FM062300 07020G30KT P6SM -SHRA VCTS BKN070CB BKN130
     FM070300 21015G25KT P6SM -SHRA VCTS SCT035CB BKN080 BKN130
     FM070600 32007KT P6SM -SHRA BKN050 OVC080=

USA.gov is the U.S. government's official web portal to all federal, state and local government web resources and services.